South Solon, Ohio
Current Conditions -  °F | °C
As of 9:56 PM on Sunday 21 Dec 2014 (Local Time) from KSGH Reporting Station
Haze Haze  
Wind Chill: 17°   Ceiling: Unl
Heat Index: 24°   Visibility: 6mi
Dew Point: 22°   Wind: 6mph
Humidity: 92%   Direction: 140°SE
Pressure: 30.16"   Gusts: NA
Location:  39.74°N, 83.61°W
Report Text: KSGH 220256Z AUTO 14005KT 6SM BR CLR M04/M06 A3016 RMK AO2 58008 T10441055 SLP226
Loading
Personal Weather Stations






























Interactive Weather Map New forecast layout! Learn more

10-Day Weather Forecast

Advertisements
Track Severe Weather on mobile